Time;durP1;ratioP1;P1;durP2;ratioP2;P2;SDS_P1;SDS_P2;PMS_P1;PMS_P2;Temp;Humidity;BMP_temperature;BMP_pressure;BME280_temperature;BME280_humidity;BME280_pressure;Samples;Min_cycle;Max_cycle;Signal;HPM_P1;HPM_P2
2022/04/03 00:00:34;;;;;;;5.57;2.67;;;8.10;82.10;;;;;;5031481;28;20083;-76
2022/04/03 00:03:02;;;;;;;3.88;2.08;;;8.20;82.80;;;;;;5031629;28;20486;-77
2022/04/03 00:05:28;;;;;;;4.63;2.20;;;8.30;81.90;;;;;;5032767;28;20091;-75
2022/04/03 00:07:56;;;;;;;3.72;1.83;;;8.40;81.80;;;;;;5032996;28;20034;-79
2022/04/03 00:10:22;;;;;;;4.07;2.25;;;8.40;81.40;;;;;;5032766;28;20033;-78
2022/04/03 00:12:49;;;;;;;5.70;2.00;;;8.40;81.80;;;;;;5032931;28;20057;-78
2022/04/03 00:15:15;;;;;;;4.63;1.60;;;8.40;81.80;;;;;;5032825;28;20029;-79
2022/04/03 00:17:43;;;;;;;4.90;2.30;;;8.30;81.50;;;;;;5031346;28;20032;-77
2022/04/03 00:20:10;;;;;;;3.83;2.20;;;8.30;81.00;;;;;;5032781;28;20068;-76
2022/04/03 00:22:36;;;;;;;5.78;2.33;;;8.30;82.10;;;;;;5031554;28;20021;-78
2022/04/03 00:25:02;;;;;;;4.43;2.28;;;8.30;82.10;;;;;;5031684;28;20021;-77
2022/04/03 00:27:28;;;;;;;4.18;2.03;;;8.30;82.40;;;;;;5033142;28;20494;-79
2022/04/03 00:29:53;;;;;;;4.00;1.90;;;8.40;82.60;;;;;;5032933;28;20029;-75
2022/04/03 00:32:19;;;;;;;6.07;2.35;;;8.40;82.50;;;;;;5034794;28;20086;-77
2022/04/03 00:34:46;;;;;;;4.45;1.92;;;8.40;82.70;;;;;;5037224;28;20497;-76
2022/04/03 00:37:12;;;;;;;3.80;1.70;;;8.50;83.30;;;;;;5033394;28;20122;-77
2022/04/03 00:39:38;;;;;;;3.60;2.00;;;8.50;83.40;;;;;;5032655;28;20065;-78
2022/04/03 00:42:08;;;;;;;3.35;1.70;;;8.40;83.00;;;;;;5032403;28;20026;-76
2022/04/03 00:44:35;;;;;;;5.80;1.88;;;8.40;83.90;;;;;;5031068;28;20036;-77
2022/04/03 00:47:04;;;;;;;3.53;1.65;;;8.40;84.20;;;;;;5032348;28;20056;-76
2022/04/03 00:49:31;;;;;;;5.07;1.90;;;8.30;82.90;;;;;;5032177;28;20391;-77
2022/04/03 00:51:58;;;;;;;4.43;1.73;;;8.30;85.20;;;;;;5032442;28;20022;-77
2022/04/03 00:54:24;;;;;;;7.10;2.92;;;8.40;85.30;;;;;;5032231;28;20072;-76
2022/04/03 00:56:51;;;;;;;4.20;1.98;;;8.40;85.30;;;;;;5032335;28;20057;-77
2022/04/03 00:59:16;;;;;;;5.82;1.90;;;8.40;85.30;;;;;;5032091;28;20099;-75
2022/04/03 01:01:43;;;;;;;4.13;1.88;;;8.40;85.40;;;;;;5032570;28;20022;-78
2022/04/03 01:04:10;;;;;;;5.43;2.10;;;8.40;86.40;;;;;;5032230;28;20021;-80
2022/04/03 01:06:36;;;;;;;4.78;2.00;;;8.30;87.20;;;;;;5064066;28;20103;-78
2022/04/03 01:09:03;;;;;;;6.53;2.20;;;8.20;86.30;;;;;;5035994;28;20029;-77
2022/04/03 01:11:29;;;;;;;4.28;2.08;;;8.20;87.70;;;;;;5067847;28;20112;-75
2022/04/03 01:13:55;;;;;;;4.72;2.17;;;8.20;88.10;;;;;;5035882;28;20022;-77
2022/04/03 01:16:20;;;;;;;4.43;2.25;;;8.20;88.20;;;;;;5035884;28;20025;-76
2022/04/03 01:18:46;;;;;;;6.20;2.55;;;8.30;87.80;;;;;;5034618;28;20496;-77
2022/04/03 01:21:13;;;;;;;4.88;2.13;;;8.40;88.60;;;;;;5035936;28;20025;-78
2022/04/03 01:23:39;;;;;;;4.57;2.05;;;8.40;88.50;;;;;;5035841;28;20022;-79
2022/04/03 01:26:05;;;;;;;3.63;2.03;;;8.40;88.80;;;;;;5035690;28;20057;-79
2022/04/03 01:28:31;;;;;;;3.72;1.70;;;8.30;88.60;;;;;;5034202;28;20123;-77
2022/04/03 01:30:56;;;;;;;3.33;1.85;;;8.20;88.90;;;;;;5035453;28;20025;-79
2022/04/03 01:33:22;;;;;;;2.90;1.50;;;8.20;89.60;;;;;;5035359;28;20048;-80
2022/04/03 01:35:48;;;;;;;4.72;1.58;;;8.20;89.50;;;;;;5035607;28;20021;-78
2022/04/03 01:38:14;;;;;;;2.83;1.50;;;8.00;89.60;;;;;;5035617;28;20025;-80
2022/04/03 01:40:41;;;;;;;3.05;1.35;;;7.90;90.00;;;;;;5035619;28;20018;-78
2022/04/03 01:43:08;;;;;;;4.60;1.83;;;7.80;90.80;;;;;;5035520;28;20446;-78
2022/04/03 01:45:38;;;;;;;2.60;1.30;;;7.70;91.20;;;;;;5034080;28;20558;-78
2022/04/03 01:48:05;;;;;;;2.22;1.20;;;7.60;90.30;;;;;;5035368;28;20017;-80
2022/04/03 01:50:31;;;;;;;3.10;1.73;;;7.60;91.40;;;;;;5033822;28;20053;-77
2022/04/03 01:52:57;;;;;;;3.28;1.80;;;7.60;91.10;;;;;;5035370;28;20025;-75
2022/04/03 01:55:24;;;;;;;2.60;1.23;;;7.60;91.60;;;;;;5037674;28;20055;-76
2022/04/03 01:57:50;;;;;;;2.85;1.40;;;7.70;91.20;;;;;;5043058;28;20471;-77
2022/04/03 02:00:19;;;;;;;2.75;1.52;;;7.80;91.20;;;;;;5041979;28;20032;-75
2022/04/03 02:02:46;;;;;;;3.00;1.40;;;7.70;90.40;;;;;;5042465;28;20029;-76
2022/04/03 02:05:13;;;;;;;2.92;1.30;;;7.80;91.70;;;;;;5040738;28;20022;-78
2022/04/03 02:07:39;;;;;;;4.53;1.20;;;7.90;90.90;;;;;;5035928;28;20029;-76
2022/04/03 02:10:08;;;;;;;1.48;0.95;;;7.80;91.00;;;;;;5035309;28;20034;-77
2022/04/03 02:12:39;;;;;;;1.23;0.85;;;7.80;91.30;;;;;;5033880;28;20037;-78
2022/04/03 02:15:06;;;;;;;1.50;0.80;;;7.70;91.50;;;;;;5034818;28;20061;-79
2022/04/03 02:17:32;;;;;;;1.70;0.85;;;7.80;91.20;;;;;;5034740;28;20024;-78
2022/04/03 02:19:58;;;;;;;2.22;0.98;;;7.70;91.20;;;;;;5033292;28;20115;-79
2022/04/03 02:22:23;;;;;;;2.30;0.98;;;7.70;91.10;;;;;;5035010;28;20483;-77
2022/04/03 02:24:49;;;;;;;1.83;1.08;;;7.70;91.40;;;;;;5066520;28;20128;-75
2022/04/03 02:27:15;;;;;;;3.50;1.90;;;7.80;91.30;;;;;;5034474;28;20029;-79
2022/04/03 02:29:41;;;;;;;1.67;1.00;;;7.90;91.30;;;;;;5033217;28;20482;-79
2022/04/03 02:32:07;;;;;;;2.70;1.38;;;8.00;90.70;;;;;;5034383;28;20034;-79
2022/04/03 02:34:32;;;;;;;2.17;1.05;;;8.00;90.50;;;;;;5034306;28;20045;-75
2022/04/03 02:36:58;;;;;;;1.73;0.90;;;8.10;90.50;;;;;;5034187;28;20025;-77
2022/04/03 02:39:24;;;;;;;1.00;0.90;;;8.00;90.30;;;;;;5034200;28;20375;-77
2022/04/03 02:41:50;;;;;;;1.00;0.80;;;8.00;90.30;;;;;;5034239;28;20083;-77
2022/04/03 02:44:16;;;;;;;2.20;1.08;;;7.80;90.30;;;;;;5034273;28;20065;-76
2022/04/03 02:46:42;;;;;;;1.75;0.90;;;7.70;90.60;;;;;;5034088;28;20091;-78
2022/04/03 02:49:08;;;;;;;2.35;0.80;;;7.70;90.70;;;;;;5033907;28;20033;-78
2022/04/03 02:51:37;;;;;;;1.63;0.77;;;7.60;90.60;;;;;;5034231;28;20033;-76
2022/04/03 02:54:03;;;;;;;2.50;0.80;;;7.50;90.70;;;;;;5033953;28;20052;-78
2022/04/03 02:56:29;;;;;;;1.30;1.08;;;7.40;90.70;;;;;;5033868;28;20458;-76
2022/04/03 02:58:55;;;;;;;1.25;0.90;;;7.50;90.90;;;;;;5034129;28;20025;-78
2022/04/03 03:01:21;;;;;;;1.30;1.00;;;7.60;91.00;;;;;;5034245;28;20029;-77
2022/04/03 03:03:47;;;;;;;1.10;0.73;;;7.60;90.80;;;;;;5034138;28;20056;-78
2022/04/03 03:06:14;;;;;;;1.38;0.90;;;7.60;90.90;;;;;;5034092;28;20569;-76
2022/04/03 03:08:41;;;;;;;1.38;0.98;;;7.60;90.40;;;;;;5034060;28;20029;-77
2022/04/03 03:11:07;;;;;;;1.73;0.93;;;7.70;90.80;;;;;;5034066;28;20100;-77
2022/04/03 03:13:33;;;;;;;1.88;0.90;;;7.70;90.50;;;;;;5032697;28;20037;-77
2022/04/03 03:15:59;;;;;;;1.70;1.00;;;7.70;90.40;;;;;;5035136;28;20035;-77
2022/04/03 03:18:24;;;;;;;1.92;1.10;;;7.80;90.50;;;;;;5034829;28;20018;-76
2022/04/03 03:20:51;;;;;;;1.70;1.08;;;7.90;90.10;;;;;;5033248;28;20037;-77
2022/04/03 03:23:17;;;;;;;1.38;0.93;;;8.00;90.00;;;;;;5034712;28;20108;-76
2022/04/03 03:25:45;;;;;;;2.10;1.00;;;8.00;89.70;;;;;;5036163;28;20021;-76
2022/04/03 03:28:11;;;;;;;1.85;1.10;;;7.90;89.40;;;;;;5033461;28;20072;-75
2022/04/03 03:30:37;;;;;;;1.63;0.90;;;8.00;89.90;;;;;;5032721;28;20025;-76
2022/04/03 03:33:03;;;;;;;1.00;0.90;;;7.90;89.40;;;;;;5033155;28;20026;-77
2022/04/03 03:35:28;;;;;;;3.75;1.20;;;7.90;89.30;;;;;;5034313;28;20040;-75
2022/04/03 03:37:55;;;;;;;1.65;1.10;;;7.90;89.10;;;;;;5033206;28;20093;-76
2022/04/03 03:40:21;;;;;;;1.50;1.00;;;7.90;88.40;;;;;;5033365;28;20108;-77
2022/04/03 03:42:47;;;;;;;1.92;1.15;;;7.90;89.10;;;;;;5033378;28;20101;-77
2022/04/03 03:45:14;;;;;;;1.38;1.20;;;7.90;89.10;;;;;;5033336;28;20467;-75
2022/04/03 03:47:43;;;;;;;2.75;1.23;;;7.90;89.80;;;;;;5033004;28;20036;-78
2022/04/03 03:50:09;;;;;;;2.80;1.20;;;8.00;89.40;;;;;;5033030;28;20053;-75
2022/04/03 03:52:35;;;;;;;3.67;1.30;;;8.00;89.10;;;;;;5033209;28;20437;-76
2022/04/03 03:55:01;;;;;;;1.98;1.10;;;8.00;89.30;;;;;;5033072;28;20041;-75
2022/04/03 03:57:27;;;;;;;1.20;1.00;;;8.00;89.10;;;;;;5033233;28;20082;-77
2022/04/03 03:59:53;;;;;;;2.30;1.40;;;7.80;89.00;;;;;;5033203;28;20037;-76
2022/04/03 04:02:19;;;;;;;2.00;1.20;;;7.80;89.30;;;;;;5033177;28;20106;-75
2022/04/03 04:04:45;;;;;;;1.73;1.20;;;7.80;89.80;;;;;;5032858;28;20041;-77
2022/04/03 04:07:10;;;;;;;4.20;1.35;;;7.80;89.70;;;;;;5033059;28;20026;-76
2022/04/03 04:09:37;;;;;;;2.55;1.10;;;7.90;90.10;;;;;;5032888;28;20478;-77
2022/04/03 04:12:03;;;;;;;2.15;1.10;;;7.90;90.10;;;;;;5032987;28;20075;-76
2022/04/03 04:14:29;;;;;;;2.22;1.20;;;7.90;89.80;;;;;;5032627;28;20116;-76
2022/04/03 04:16:55;;;;;;;2.72;1.50;;;7.90;90.10;;;;;;5032855;28;20136;-77
2022/04/03 04:19:20;;;;;;;3.80;1.40;;;7.90;90.40;;;;;;5032780;28;20037;-78
2022/04/03 04:21:46;;;;;;;4.80;2.60;;;7.80;90.30;;;;;;5032862;28;20379;-77
2022/04/03 04:24:12;;;;;;;2.17;1.50;;;7.80;90.60;;;;;;5032569;28;20033;-75
2022/04/03 04:26:38;;;;;;;2.58;1.58;;;7.80;90.90;;;;;;5032705;28;20029;-75
2022/04/03 04:29:04;;;;;;;2.20;1.35;;;7.70;91.00;;;;;;5032631;28;20470;-77
2022/04/03 04:31:29;;;;;;;3.17;1.70;;;7.60;91.40;;;;;;5031650;28;20067;-77
2022/04/03 04:33:55;;;;;;;3.20;1.70;;;7.50;91.40;;;;;;5032229;28;20029;-78
2022/04/03 04:36:21;;;;;;;3.15;1.85;;;7.60;91.60;;;;;;5032709;28;20025;-76
2022/04/03 04:38:47;;;;;;;3.58;1.85;;;7.50;91.70;;;;;;5032504;28;20461;-76
2022/04/03 04:41:14;;;;;;;3.60;1.70;;;7.50;91.70;;;;;;5032561;28;20030;-76
2022/04/03 04:43:40;;;;;;;3.05;1.70;;;7.50;90.80;;;;;;5035905;28;20057;-78
2022/04/03 04:46:05;;;;;;;4.57;2.05;;;7.50;92.00;;;;;;5036538;28;20360;-76
2022/04/03 04:48:32;;;;;;;3.53;2.10;;;7.50;91.90;;;;;;5036373;28;20108;-77
2022/04/03 04:50:58;;;;;;;4.90;2.00;;;7.50;92.00;;;;;;5036289;28;20413;-77
2022/04/03 04:53:23;;;;;;;4.25;2.35;;;7.40;91.90;;;;;;5036320;28;20021;-76
2022/04/03 04:55:49;;;;;;;3.70;1.88;;;7.40;92.10;;;;;;5035110;28;20030;-75
2022/04/03 04:58:15;;;;;;;3.60;1.88;;;7.30;92.10;;;;;;5036395;28;20075;-75
2022/04/03 05:00:41;;;;;;;3.17;1.95;;;7.30;92.20;;;;;;5036335;28;20124;-75
2022/04/03 05:03:07;;;;;;;4.82;2.20;;;7.30;92.40;;;;;;5036185;28;20034;-79
2022/04/03 05:05:35;;;;;;;3.60;1.83;;;7.30;92.30;;;;;;5036109;28;20057;-76
2022/04/03 05:08:01;;;;;;;4.38;2.05;;;7.40;92.30;;;;;;5036328;28;20100;-76
2022/04/03 05:10:29;;;;;;;3.15;1.65;;;7.30;92.30;;;;;;5036336;28;20097;-77
2022/04/03 05:12:55;;;;;;;3.05;1.40;;;7.30;92.60;;;;;;5036187;28;20017;-76
2022/04/03 05:15:21;;;;;;;2.42;1.45;;;7.40;92.30;;;;;;5035934;28;20426;-77
2022/04/03 05:17:47;;;;;;;3.70;1.65;;;7.50;92.10;;;;;;5068227;28;20473;-76
2022/04/03 05:20:14;;;;;;;3.83;1.42;;;7.50;92.10;;;;;;5035567;28;20032;-77
2022/04/03 05:22:41;;;;;;;2.60;1.42;;;7.70;92.10;;;;;;5036464;28;20052;-76
2022/04/03 05:25:09;;;;;;;2.65;1.52;;;7.70;92.00;;;;;;5036097;28;20068;-75
2022/04/03 05:27:34;;;;;;;3.33;1.60;;;7.60;91.90;;;;;;5035747;28;20378;-76
2022/04/03 05:30:03;;;;;;;3.33;1.50;;;7.50;91.90;;;;;;5034640;28;20030;-78
2022/04/03 05:32:30;;;;;;;1.83;1.20;;;7.60;90.80;;;;;;5035901;28;20058;-75
2022/04/03 05:34:58;;;;;;;3.10;1.60;;;7.50;91.80;;;;;;5035408;28;20045;-76
2022/04/03 05:37:23;;;;;;;2.80;1.80;;;7.60;91.70;;;;;;5067429;28;20036;-77
2022/04/03 05:39:51;;;;;;;3.00;1.60;;;7.50;91.60;;;;;;5034176;28;20029;-77
2022/04/03 05:42:20;;;;;;;3.75;1.70;;;7.50;91.90;;;;;;5035452;28;20532;-78
2022/04/03 05:44:47;;;;;;;3.80;1.60;;;7.50;90.50;;;;;;5035535;28;20025;-76
2022/04/03 05:47:13;;;;;;;2.00;1.60;;;7.50;91.70;;;;;;5035454;28;20125;-76
2022/04/03 05:49:38;;;;;;;3.10;1.80;;;7.60;91.90;;;;;;5035403;28;20379;-75
2022/04/03 05:52:05;;;;;;;3.53;2.10;;;7.60;91.40;;;;;;5033827;28;20029;-75
2022/04/03 05:54:30;;;;;;;3.65;2.00;;;7.70;91.20;;;;;;5036026;28;20084;-76
2022/04/03 05:56:56;;;;;;;3.50;1.95;;;7.70;91.20;;;;;;5038458;28;20030;-77
2022/04/03 05:59:23;;;;;;;3.67;2.20;;;7.90;91.10;;;;;;5036469;28;20061;-75
2022/04/03 06:01:49;;;;;;;3.00;2.00;;;8.00;89.50;;;;;;5035572;28;20026;-77
2022/04/03 06:04:16;;;;;;;3.22;1.85;;;8.20;90.30;;;;;;5035004;28;20542;-77
2022/04/03 06:06:41;;;;;;;2.90;2.10;;;8.20;88.70;;;;;;5035009;28;20026;-75
2022/04/03 06:09:08;;;;;;;3.05;1.88;;;8.40;89.30;;;;;;5036702;28;20025;-75
2022/04/03 06:11:34;;;;;;;3.42;2.08;;;8.70;88.40;;;;;;5038115;28;20032;-76
2022/04/03 06:14:00;;;;;;;3.22;2.08;;;8.80;87.20;;;;;;5035506;28;20168;-76
2022/04/03 06:16:26;;;;;;;3.50;2.03;;;8.90;87.00;;;;;;5035114;28;20033;-76
2022/04/03 06:18:53;;;;;;;3.17;1.92;;;9.00;86.70;;;;;;5034959;28;20127;-76
2022/04/03 06:21:19;;;;;;;3.10;2.00;;;9.20;86.40;;;;;;5035050;28;20034;-78
2022/04/03 06:23:45;;;;;;;3.08;2.05;;;9.30;86.10;;;;;;5034794;28;20040;-76
2022/04/03 06:26:10;;;;;;;3.45;2.08;;;9.20;84.30;;;;;;5034422;28;20478;-78
2022/04/03 06:28:36;;;;;;;3.03;1.77;;;9.30;85.00;;;;;;5066456;28;20076;-79
2022/04/03 06:31:02;;;;;;;3.50;2.10;;;9.40;84.80;;;;;;5033830;28;20494;-77
2022/04/03 06:33:28;;;;;;;4.10;2.03;;;9.40;83.80;;;;;;5044004;28;20117;-75
2022/04/03 06:35:54;;;;;;;3.95;2.40;;;9.70;84.30;;;;;;5041303;28;20025;-77
2022/04/03 06:38:20;;;;;;;5.22;3.03;;;9.80;82.90;;;;;;5039762;28;20029;-77
2022/04/03 06:40:53;;;;;;;6.47;3.70;;;9.90;81.80;;;;;;5036749;28;20479;-77
2022/04/03 06:43:24;;;;;;;4.68;2.90;;;10.10;81.40;;;;;;5033702;28;20112;-75
2022/04/03 06:45:51;;;;;;;4.78;2.63;;;10.30;80.00;;;;;;5034259;28;20079;-75
2022/04/03 06:48:17;;;;;;;4.90;2.50;;;10.30;79.10;;;;;;5033232;28;20448;-75
2022/04/03 06:50:43;;;;;;;3.83;2.20;;;10.40;77.90;;;;;;5034080;28;20045;-74
2022/04/03 06:53:09;;;;;;;4.35;2.40;;;10.50;77.90;;;;;;5034068;28;20025;-76
2022/04/03 06:55:35;;;;;;;3.50;2.10;;;10.50;78.10;;;;;;5034209;28;20029;-76
2022/04/03 06:58:01;;;;;;;3.97;2.30;;;10.60;76.30;;;;;;5034555;28;20489;-77
2022/04/03 07:00:27;;;;;;;3.40;1.98;;;10.50;76.80;;;;;;5034153;28;20033;-77
2022/04/03 07:02:53;;;;;;;4.22;1.88;;;10.60;76.70;;;;;;5033662;28;20112;-77
2022/04/03 07:05:20;;;;;;;2.50;1.50;;;10.70;76.20;;;;;;5033546;28;20091;-76
2022/04/03 07:07:46;;;;;;;2.53;1.63;;;10.80;75.30;;;;;;5032218;28;20074;-75
2022/04/03 07:10:12;;;;;;;2.10;1.33;;;10.80;73.80;;;;;;5033621;28;20484;-76
2022/04/03 07:12:38;;;;;;;2.10;1.48;;;10.90;74.50;;;;;;5033540;28;20029;-79
2022/04/03 07:15:07;;;;;;;2.33;1.40;;;11.00;74.40;;;;;;5034416;28;20040;-77
2022/04/03 07:17:32;;;;;;;3.95;1.70;;;11.10;73.40;;;;;;5055241;28;20049;-76
2022/04/03 07:19:58;;;;;;;2.70;1.70;;;11.10;73.30;;;;;;5038382;28;20083;-76
2022/04/03 07:22:24;;;;;;;3.72;2.20;;;11.20;73.40;;;;;;5035409;28;20470;-76
2022/04/03 07:24:49;;;;;;;3.58;1.88;;;11.20;73.50;;;;;;5033734;28;20441;-76
2022/04/03 07:27:15;;;;;;;3.60;1.70;;;11.30;73.70;;;;;;5032955;28;20025;-76
2022/04/03 07:29:41;;;;;;;3.35;1.70;;;11.50;73.90;;;;;;5033725;28;20532;-75
2022/04/03 07:32:07;;;;;;;2.92;1.60;;;11.60;73.40;;;;;;5033320;28;20041;-76
2022/04/03 07:34:33;;;;;;;4.10;2.10;;;11.90;73.20;;;;;;5033489;28;20037;-77
2022/04/03 07:36:59;;;;;;;4.72;1.80;;;12.00;72.30;;;;;;5033149;28;20068;-76
2022/04/03 07:39:26;;;;;;;7.32;4.47;;;12.10;71.30;;;;;;5033368;28;20029;-75
2022/04/03 07:41:51;;;;;;;8.40;5.40;;;12.10;71.10;;;;;;5033200;28;20408;-76
2022/04/03 07:44:17;;;;;;;3.40;2.20;;;12.10;70.50;;;;;;5033168;28;20100;-77
2022/04/03 07:46:43;;;;;;;4.22;2.33;;;12.10;70.00;;;;;;5031673;28;20031;-77
2022/04/03 07:49:10;;;;;;;4.88;2.38;;;12.10;70.00;;;;;;5033530;28;20455;-80
2022/04/03 07:51:36;;;;;;;4.90;2.60;;;12.20;69.80;;;;;;5033009;28;20021;-75
2022/04/03 07:54:02;;;;;;;5.00;2.70;;;12.20;69.50;;;;;;5032772;28;20041;-77
2022/04/03 07:56:29;;;;;;;4.65;2.17;;;12.10;70.00;;;;;;5033182;28;20383;-77
2022/04/03 07:58:55;;;;;;;3.20;1.80;;;12.20;70.30;;;;;;5032902;28;20033;-76
2022/04/03 08:01:21;;;;;;;5.68;1.90;;;12.40;69.90;;;;;;5032625;28;20017;-75
2022/04/03 08:03:47;;;;;;;8.55;2.80;;;12.40;69.10;;;;;;5032686;28;20509;-78
2022/04/03 08:06:12;;;;;;;5.97;2.40;;;12.40;69.20;;;;;;5032671;28;20021;-77
2022/04/03 08:08:39;;;;;;;3.65;1.98;;;12.20;68.70;;;;;;5031439;28;20029;-78
2022/04/03 08:11:05;;;;;;;3.88;2.20;;;12.10;69.10;;;;;;5032597;28;20171;-76
2022/04/03 08:13:30;;;;;;;6.28;2.38;;;12.10;69.50;;;;;;5032524;28;20037;-76
2022/04/03 08:15:56;;;;;;;4.70;2.05;;;12.10;69.60;;;;;;5032670;28;20124;-77
2022/04/03 08:18:22;;;;;;;4.95;1.98;;;12.10;69.70;;;;;;5032248;28;20025;-78
2022/04/03 08:20:48;;;;;;;5.15;2.13;;;12.20;69.50;;;;;;5032605;28;20509;-77
2022/04/03 08:23:14;;;;;;;6.70;2.33;;;12.10;69.00;;;;;;5032525;28;20113;-76
2022/04/03 08:25:40;;;;;;;3.83;2.00;;;12.10;69.00;;;;;;5032754;28;20152;-78
2022/04/03 08:28:07;;;;;;;4.35;2.03;;;12.00;69.10;;;;;;5032689;28;20021;-78
2022/04/03 08:30:38;;;;;;;6.03;2.38;;;11.90;69.00;;;;;;5032741;28;20052;-79
2022/04/03 08:33:05;;;;;;;5.50;2.17;;;11.80;69.40;;;;;;5031599;28;20032;-78
2022/04/03 08:35:31;;;;;;;5.65;2.58;;;11.80;69.50;;;;;;5032373;28;20111;-76
2022/04/03 08:37:58;;;;;;;4.63;2.28;;;11.80;69.60;;;;;;5032269;28;20032;-79
2022/04/03 08:40:26;;;;;;;7.90;2.25;;;11.90;69.50;;;;;;5032539;28;20087;-78
2022/04/03 08:42:54;;;;;;;5.38;2.55;;;11.90;69.40;;;;;;5032647;28;20108;-79
2022/04/03 08:45:20;;;;;;;5.00;2.33;;;11.90;69.10;;;;;;5032538;28;20025;-76
2022/04/03 08:47:52;;;;;;;5.10;2.20;;;12.00;69.40;;;;;;5032778;28;20429;-77
2022/04/03 08:50:20;;;;;;;7.80;2.50;;;12.00;69.60;;;;;;5032164;28;20127;-77
2022/04/03 08:52:48;;;;;;;7.40;2.28;;;12.00;69.40;;;;;;5031107;28;20108;-78
2022/04/03 08:55:14;;;;;;;4.78;1.98;;;12.10;69.40;;;;;;5032290;28;20034;-78
2022/04/03 08:57:42;;;;;;;4.45;2.00;;;12.20;69.20;;;;;;5031802;28;20085;-78
2022/04/03 09:00:09;;;;;;;7.03;2.40;;;12.30;68.70;;;;;;5034921;28;20076;-76
2022/04/03 09:02:35;;;;;;;6.68;2.13;;;12.50;68.00;;;;;;5035659;28;20112;-76
2022/04/03 09:05:00;;;;;;;5.03;1.90;;;12.60;67.00;;;;;;5067667;28;20026;-76
2022/04/03 09:07:26;;;;;;;5.30;2.15;;;12.80;66.30;;;;;;5033614;28;20068;-76
2022/04/03 09:10:07;;;;;;;5.70;1.77;;;13.00;65.40;;;;;;5033712;28;20417;-79
2022/04/03 09:12:32;;;;;;;4.50;1.73;;;13.10;64.60;;;;;;5034665;28;20025;-78
2022/04/03 09:14:59;;;;;;;4.75;1.75;;;13.20;63.60;;;;;;5034001;28;20042;-80
2022/04/03 09:17:31;;;;;;;3.70;1.75;;;13.00;62.50;;;;;;5033999;28;20021;-79
2022/04/03 09:20:06;;;;;;;5.28;2.50;;;13.10;63.20;;;;;;5033384;28;20104;-79
2022/04/03 09:22:36;;;;;;;6.55;1.67;;;13.20;63.70;;;;;;5033133;28;20021;-75
2022/04/03 09:25:07;;;;;;;5.85;1.90;;;13.20;62.40;;;;;;5031058;28;20032;-77
2022/04/03 09:27:34;;;;;;;6.45;2.20;;;13.30;62.50;;;;;;5032146;28;20040;-78
2022/04/03 09:30:07;;;;;;;5.60;2.13;;;13.40;61.90;;;;;;5034519;28;20374;-78
2022/04/03 09:32:33;;;;;;;8.30;3.20;;;13.50;62.00;;;;;;5035642;28;20029;-77
2022/04/03 09:34:59;;;;;;;7.85;3.38;;;13.70;61.70;;;;;;5035163;28;20033;-78
2022/04/03 09:37:26;;;;;;;6.07;1.98;;;13.70;61.00;;;;;;5035931;28;20037;-78
2022/04/03 09:39:53;;;;;;;7.60;2.00;;;13.80;60.30;;;;;;5036156;28;20029;-80
2022/04/03 09:42:20;;;;;;;4.97;2.05;;;13.70;60.20;;;;;;5035287;28;20115;-77
2022/04/03 09:44:49;;;;;;;5.05;2.03;;;13.70;60.20;;;;;;5035567;28;20041;-79
2022/04/03 09:47:32;;;;;;;4.40;1.90;;;13.80;60.00;;;;;;5035542;28;20383;-79
2022/04/03 09:50:00;;;;;;;4.47;1.77;;;13.90;59.80;;;;;;5035362;28;20045;-79
2022/04/03 09:52:43;;;;;;;5.63;2.05;;;13.90;58.50;;;;;;5067455;28;20432;-77
2022/04/03 09:55:28;;;;;;;6.68;1.90;;;13.90;58.20;;;;;;5035369;28;20453;-78
2022/04/03 09:58:05;;;;;;;7.55;1.92;;;13.80;58.10;;;;;;5035281;28;20079;-79
2022/04/03 10:00:33;;;;;;;5.93;2.10;;;14.00;57.90;;;;;;5035055;28;20029;-77
2022/04/03 10:03:02;;;;;;;5.35;2.00;;;14.10;56.40;;;;;;5033493;28;20103;-78
2022/04/03 10:05:36;;;;;;;4.63;2.10;;;14.30;56.50;;;;;;5035114;28;20036;-77
2022/04/03 10:08:04;;;;;;;6.38;1.90;;;14.50;56.00;;;;;;5035220;28;20030;-77
2022/04/03 10:10:31;;;;;;;5.10;2.08;;;14.60;55.50;;;;;;5035725;28;20355;-77
2022/04/03 10:12:58;;;;;;;5.03;2.00;;;14.80;55.40;;;;;;5034997;28;20112;-77
2022/04/03 10:15:25;;;;;;;6.80;2.10;;;14.80;55.10;;;;;;5036231;28;20041;-79
2022/04/03 10:17:52;;;;;;;4.80;2.05;;;14.80;55.00;;;;;;5034754;28;20024;-78
2022/04/03 10:20:17;;;;;;;3.95;1.80;;;14.80;55.20;;;;;;5034952;28;20387;-80
2022/04/03 10:22:47;;;;;;;7.60;2.17;;;14.70;54.50;;;;;;5034730;28;20022;-80
2022/04/03 10:25:18;;;;;;;5.80;1.80;;;14.70;54.30;;;;;;5034902;28;20021;-80
2022/04/03 10:27:45;;;;;;;5.00;2.17;;;14.70;54.00;;;;;;5034810;28;20096;-78
2022/04/03 10:30:14;;;;;;;8.07;2.33;;;14.90;53.90;;;;;;5034645;28;20021;-79
2022/04/03 10:32:41;;;;;;;5.03;1.70;;;15.10;53.20;;;;;;5034506;28;20056;-78
2022/04/03 10:35:11;;;;;;;5.68;1.98;;;15.10;52.60;;;;;;5034360;28;20037;-79
2022/04/03 10:37:41;;;;;;;5.50;1.98;;;15.10;52.60;;;;;;5034647;28;20104;-79
2022/04/03 10:40:16;;;;;;;5.20;2.10;;;15.20;52.70;;;;;;5034156;28;20025;-76
2022/04/03 10:42:58;;;;;;;7.43;2.58;;;15.40;52.80;;;;;;5034381;28;20087;-79
2022/04/03 10:45:27;;;;;;;4.85;1.98;;;15.60;50.00;;;;;;5035037;28;20034;-78
2022/04/03 10:48:21;;;;;;;6.70;2.47;;;15.70;50.10;;;;;;5034596;28;20049;-79
2022/04/03 10:50:59;;;;;;;5.93;2.30;;;15.50;50.20;;;;;;5034259;28;20045;-78
2022/04/03 10:53:27;;;;;;;7.60;1.65;;;15.70;48.90;;;;;;5034451;28;20056;-80
2022/04/03 10:55:57;;;;;;;6.30;2.10;;;15.80;49.10;;;;;;5034529;28;20034;-77
2022/04/03 10:58:22;;;;;;;5.35;1.98;;;15.90;48.80;;;;;;5034273;28;20017;-80
2022/04/03 11:00:49;;;;;;;6.95;1.80;;;16.00;48.50;;;;;;5034077;28;20087;-80
2022/04/03 11:03:18;;;;;;;7.05;2.22;;;16.10;48.10;;;;;;5034021;28;20116;-79
2022/04/03 11:05:50;;;;;;;7.20;2.15;;;16.00;48.20;;;;;;5034189;28;20029;-78
2022/04/03 11:08:17;;;;;;;4.35;1.70;;;16.00;47.80;;;;;;5033976;28;20052;-80
2022/04/03 11:11:07;;;;;;;4.05;1.98;;;15.90;48.30;;;;;;5032454;28;20079;-80
2022/04/03 11:13:33;;;;;;;5.88;2.10;;;16.00;48.10;;;;;;5034169;28;20032;-79
2022/04/03 11:16:11;;;;;;;5.40;2.03;;;15.90;48.00;;;;;;5033851;28;20029;-78
2022/04/03 11:18:48;;;;;;;5.03;1.90;;;15.90;48.20;;;;;;5032686;28;20033;-78
2022/04/03 11:21:25;;;;;;;5.00;2.20;;;15.60;48.00;;;;;;5034175;28;20109;-76
2022/04/03 11:24:07;;;;;;;5.03;1.90;;;15.50;47.70;;;;;;5065538;28;20040;-76
2022/04/03 11:26:34;;;;;;;6.47;2.08;;;15.60;47.70;;;;;;5034336;28;20178;-76
2022/04/03 11:29:01;;;;;;;4.72;1.75;;;15.80;48.00;;;;;;5034243;28;20026;-77
2022/04/03 11:31:27;;;;;;;4.05;1.85;;;16.10;47.40;;;;;;5038267;28;20045;-79
2022/04/03 11:33:53;;;;;;;5.47;1.70;;;16.30;47.00;;;;;;5035446;28;20467;-75
2022/04/03 11:36:24;;;;;;;3.13;1.48;;;16.50;46.40;;;;;;5034249;28;20037;-78
2022/04/03 11:38:51;;;;;;;6.50;2.10;;;16.60;45.80;;;;;;5065784;28;20021;-80
2022/04/03 11:41:22;;;;;;;4.78;1.88;;;16.40;44.70;;;;;;5032404;28;20017;-78
2022/04/03 11:44:00;;;;;;;4.88;1.65;;;16.70;45.10;;;;;;5034129;28;20501;-77
2022/04/03 11:46:27;;;;;;;4.90;1.90;;;16.80;44.80;;;;;;5033667;28;20034;-79
2022/04/03 11:48:53;;;;;;;7.32;2.10;;;16.90;44.20;;;;;;5036479;28;20052;-79
2022/04/03 11:51:20;;;;;;;5.63;1.70;;;16.90;44.30;;;;;;5043956;28;20502;-75
2022/04/03 11:53:51;;;;;;;5.75;1.80;;;16.80;44.60;;;;;;5037745;28;20033;-79
2022/04/03 11:56:18;;;;;;;6.95;2.50;;;16.70;44.60;;;;;;5033508;28;20034;-80
2022/04/03 11:58:49;;;;;;;7.28;1.85;;;16.60;44.90;;;;;;5033673;28;20024;-77
2022/04/03 12:01:25;;;;;;;4.65;1.63;;;16.60;43.70;;;;;;5033440;28;20030;-78
2022/04/03 12:03:59;;;;;;;5.88;2.15;;;16.60;44.40;;;;;;5033139;28;20026;-78
2022/04/03 12:06:26;;;;;;;6.47;2.05;;;16.70;45.00;;;;;;5033242;28;20068;-76
2022/04/03 12:08:52;;;;;;;6.05;1.83;;;16.80;44.50;;;;;;5033163;28;20079;-78
2022/04/03 12:11:37;;;;;;;4.82;1.95;;;17.00;44.40;;;;;;5033177;28;20025;-78
2022/04/03 12:14:05;;;;;;;7.93;2.00;;;16.90;44.30;;;;;;5032813;28;20088;-75
2022/04/03 12:16:32;;;;;;;5.88;1.75;;;17.10;44.40;;;;;;5033151;28;20040;-77
2022/04/03 12:19:00;;;;;;;5.05;2.22;;;17.20;44.20;;;;;;5033024;28;20490;-79
2022/04/03 12:22:04;;;;;;;5.85;2.00;;;17.20;43.70;;;;;;5033015;28;20076;-78
2022/04/03 12:24:34;;;;;;;4.10;1.60;;;17.30;42.10;;;;;;5030765;28;20029;-79
2022/04/03 12:27:12;;;;;;;7.30;2.08;;;17.20;43.80;;;;;;5028295;28;20030;-78
2022/04/03 12:29:42;;;;;;;5.40;1.73;;;17.20;43.70;;;;;;5033093;28;20017;-76
2022/04/03 12:32:15;;;;;;;5.35;2.25;;;17.20;43.50;;;;;;5064413;28;20025;-77
2022/04/03 12:34:43;;;;;;;6.10;2.10;;;17.30;42.20;;;;;;5031248;28;20041;-81
2022/04/03 12:37:10;;;;;;;6.18;2.10;;;17.30;43.80;;;;;;5031572;28;20375;-80
2022/04/03 12:39:42;;;;;;;5.07;1.77;;;17.30;43.60;;;;;;5033052;28;20102;-79
2022/04/03 12:42:32;;;;;;;3.03;1.20;;;17.30;42.40;;;;;;5032683;28;20028;-77
2022/04/03 12:45:08;;;;;;;5.75;1.77;;;17.30;40.40;;;;;;5032150;28;20037;-76
2022/04/03 12:47:41;;;;;;;3.17;1.35;;;17.30;40.50;;;;;;5032552;28;20033;-79
2022/04/03 12:50:07;;;;;;;;;;;17.30;42.10;;;;;;5031428;28;20099;-79
2022/04/03 12:52:43;;;;;;;5.40;1.60;;;17.40;40.20;;;;;;5032622;28;19905;-80
2022/04/03 12:55:32;;;;;;;4.38;1.60;;;17.50;40.40;;;;;;5031022;28;20040;-76